createdAt,value
2018-10-21T00:02:36.377Z,72.48
2018-10-21T00:06:01.428Z,72.64
2018-10-21T00:09:26.225Z,72.26
2018-10-21T00:12:51.030Z,72.02
2018-10-21T00:16:15.738Z,72.86
2018-10-21T00:19:40.552Z,72.80
2018-10-21T00:23:05.356Z,72.42
2018-10-21T00:26:30.062Z,73.24
2018-10-21T00:29:54.842Z,73.26
2018-10-21T00:33:19.553Z,72.15
2018-10-21T00:36:44.320Z,72.76
2018-10-21T00:40:09.110Z,72.77
2018-10-21T00:43:33.941Z,72.49
2018-10-21T00:46:58.702Z,73.52
2018-10-21T00:50:23.409Z,73.49
2018-10-21T00:53:48.119Z,73.69
2018-10-21T00:57:12.914Z,73.72
2018-10-21T01:00:37.583Z,74.79
2018-10-21T01:04:02.357Z,73.94
2018-10-21T01:07:27.066Z,73.86
2018-10-21T01:10:51.795Z,74.10
2018-10-21T01:14:16.526Z,73.89
2018-10-21T01:17:41.330Z,73.47
2018-10-21T01:21:06.539Z,73.53
2018-10-21T01:24:31.238Z,73.67
2018-10-21T01:27:56.001Z,73.19
2018-10-21T01:31:20.765Z,74.20
2018-10-21T01:34:45.679Z,74.19
2018-10-21T01:38:10.440Z,74.29
2018-10-21T01:41:35.138Z,73.89
2018-10-21T01:44:59.868Z,74.68
2018-10-21T01:48:25.815Z,73.89
2018-10-21T01:51:50.516Z,74.11
2018-10-21T01:55:15.211Z,74.17
2018-10-21T01:58:39.917Z,75.31
2018-10-21T02:02:04.698Z,74.25
2018-10-21T02:05:29.826Z,74.82
2018-10-21T02:08:54.603Z,74.79
2018-10-21T02:12:19.378Z,73.89
2018-10-21T02:15:44.130Z,74.14
2018-10-21T02:19:08.966Z,74.23
2018-10-21T02:22:33.671Z,74.30
2018-10-21T02:25:58.419Z,74.94
2018-10-21T02:29:23.157Z,74.42
2018-10-21T02:32:48.871Z,74.33
2018-10-21T02:36:13.602Z,73.45
2018-10-21T02:39:38.323Z,74.70
2018-10-21T02:43:03.026Z,73.69
2018-10-21T02:46:28.073Z,74.63
2018-10-21T02:49:52.886Z,74.32
2018-10-21T02:53:17.669Z,75.23
2018-10-21T02:56:42.414Z,74.45
2018-10-21T03:00:07.232Z,74.42
2018-10-21T03:03:32.055Z,74.49
2018-10-21T03:06:56.874Z,75.04
2018-10-21T03:10:21.588Z,73.41
2018-10-21T03:13:46.425Z,74.35
2018-10-21T03:17:11.216Z,74.25
2018-10-21T03:20:36.009Z,74.57
2018-10-21T03:24:00.789Z,73.96
2018-10-21T03:27:25.533Z,73.90
2018-10-21T03:30:50.305Z,74.84
2018-10-21T03:34:15.044Z,74.43
2018-10-21T03:37:39.810Z,74.47
2018-10-21T03:41:04.590Z,74.87
2018-10-21T03:44:29.326Z,74.69
2018-10-21T03:47:54.104Z,74.82
2018-10-21T03:51:18.825Z,74.43
2018-10-21T03:54:47.831Z,74.33
2018-10-21T03:58:12.676Z,74.78
2018-10-21T04:01:37.404Z,75.38
2018-10-21T04:05:02.161Z,74.39
2018-10-21T04:08:26.903Z,74.52
2018-10-21T04:11:51.665Z,74.74
2018-10-21T04:15:16.412Z,74.86
2018-10-21T04:18:41.237Z,74.74
2018-10-21T04:22:06.084Z,74.21
2018-10-21T04:25:31.967Z,74.94
2018-10-21T04:28:56.738Z,74.12
2018-10-21T04:32:21.472Z,74.14
2018-10-21T04:35:46.153Z,74.62
2018-10-21T04:39:27.583Z,74.97
2018-10-21T04:42:52.267Z,75.38
2018-10-21T04:46:17.065Z,75.08
2018-10-21T04:49:41.768Z,75.48
2018-10-21T04:53:06.659Z,75.29
2018-10-21T04:56:31.368Z,75.31
2018-10-21T04:59:56.098Z,75.13
2018-10-21T05:03:20.851Z,75.40
2018-10-21T05:06:45.558Z,75.48
2018-10-21T05:10:25.849Z,74.71
2018-10-21T05:13:50.559Z,75.00
2018-10-21T05:17:15.306Z,75.13
2018-10-21T05:20:39.999Z,75.27
2018-10-21T05:24:04.852Z,74.80
2018-10-21T05:27:29.566Z,75.67
2018-10-21T05:30:54.333Z,76.03
2018-10-21T05:34:19.057Z,75.17
2018-10-21T05:37:43.817Z,74.83
2018-10-21T05:41:08.593Z,75.30
2018-10-21T05:44:33.311Z,75.03
2018-10-21T05:47:58.074Z,75.49
2018-10-21T05:51:22.774Z,74.29
2018-10-21T05:54:47.520Z,75.25
2018-10-21T05:58:12.269Z,75.46
2018-10-21T06:01:37.147Z,74.76
2018-10-21T06:05:01.935Z,76.00
2018-10-21T06:08:26.710Z,75.66
2018-10-21T06:11:51.451Z,75.66
2018-10-21T06:15:16.239Z,75.92
2018-10-21T06:18:41.065Z,75.34
2018-10-21T06:22:05.820Z,75.61
2018-10-21T06:25:30.591Z,75.33
2018-10-21T06:28:55.378Z,75.84
2018-10-21T06:32:20.159Z,77.18
2018-10-21T06:35:44.925Z,75.29
2018-10-21T06:39:10.327Z,76.01
2018-10-21T06:42:35.005Z,75.50
2018-10-21T06:45:59.765Z,75.91
2018-10-21T06:49:24.502Z,76.47
2018-10-21T06:52:49.632Z,76.04
2018-10-21T06:56:14.347Z,75.59
2018-10-21T06:59:39.114Z,75.79
2018-10-21T07:03:03.845Z,76.00
2018-10-21T07:06:29.552Z,76.10
2018-10-21T07:09:54.344Z,75.30
2018-10-21T07:13:19.237Z,76.55
2018-10-21T07:16:44.076Z,76.33
2018-10-21T07:20:09.272Z,75.36
2018-10-21T07:23:33.986Z,75.58
2018-10-21T07:26:58.813Z,74.70
2018-10-21T07:30:23.587Z,73.63
2018-10-21T07:33:48.324Z,74.19
2018-10-21T07:37:13.059Z,74.98
2018-10-21T07:40:37.754Z,74.64
2018-10-21T07:44:02.547Z,74.88
2018-10-21T07:47:27.297Z,74.87
2018-10-21T07:50:52.039Z,73.54
2018-10-21T07:54:16.794Z,73.00
2018-10-21T07:57:41.502Z,73.56
2018-10-21T08:01:06.315Z,71.10
2018-10-21T08:04:31.123Z,70.63
2018-10-21T08:08:11.782Z,69.32
2018-10-21T08:11:36.513Z,67.74
2018-10-21T08:15:01.350Z,68.15
2018-10-21T08:18:26.229Z,67.96
2018-10-21T08:21:51.025Z,68.17
2018-10-21T08:25:15.745Z,66.19
2018-10-21T08:28:40.540Z,65.26
2018-10-21T08:32:05.585Z,64.80
2018-10-21T08:35:30.347Z,65.47
2018-10-21T08:38:55.125Z,65.36
2018-10-21T08:42:19.857Z,65.01
2018-10-21T08:45:44.643Z,64.17
2018-10-21T08:49:09.413Z,64.15
2018-10-21T08:52:34.090Z,63.00
2018-10-21T08:55:58.971Z,62.98
2018-10-21T08:59:23.691Z,62.77
2018-10-21T09:02:48.577Z,61.62
2018-10-21T09:06:13.372Z,59.77
2018-10-21T09:09:38.289Z,59.67
2018-10-21T09:13:03.064Z,57.88
2018-10-21T09:16:27.799Z,56.11
2018-10-21T09:19:52.549Z,53.37
2018-10-21T09:23:17.326Z,44.99
2018-10-21T09:26:42.121Z,39.66
2018-10-21T09:30:08.700Z,36.96
2018-10-21T09:33:33.475Z,34.56
2018-10-21T09:36:58.273Z,31.36
2018-10-21T09:40:23.053Z,32.66
2018-10-21T09:43:47.745Z,29.67
2018-10-21T09:47:12.528Z,29.26
2018-10-21T09:50:37.285Z,27.46
2018-10-21T09:54:01.989Z,27.20
2018-10-21T09:57:26.770Z,26.73
2018-10-21T10:00:56.798Z,28.79
2018-10-21T10:04:21.524Z,28.49
2018-10-21T10:07:46.343Z,27.55
2018-10-21T10:11:11.099Z,27.54
2018-10-21T10:14:35.829Z,27.90
2018-10-21T10:18:00.686Z,27.03
2018-10-21T10:21:25.483Z,25.09
2018-10-21T10:24:50.432Z,25.50
2018-10-21T10:28:15.319Z,24.88
2018-10-21T10:31:39.959Z,25.78
2018-10-21T10:35:04.859Z,27.95
2018-10-21T10:38:29.681Z,24.90
2018-10-21T10:41:54.472Z,24.06
2018-10-21T10:45:19.276Z,26.78
2018-10-21T10:48:43.987Z,26.12
2018-10-21T10:52:08.727Z,25.12
2018-10-21T10:55:38.603Z,24.29
2018-10-21T10:59:03.385Z,24.92
2018-10-21T11:02:28.118Z,24.80
2018-10-21T11:05:52.871Z,24.74
2018-10-21T11:09:17.660Z,24.31
2018-10-21T11:12:42.435Z,24.75
2018-10-21T11:16:07.932Z,24.52
2018-10-21T11:19:32.689Z,23.89
2018-10-21T11:22:57.611Z,23.35
2018-10-21T11:26:22.303Z,24.83
2018-10-21T11:29:48.365Z,25.84
2018-10-21T11:33:13.142Z,24.51
2018-10-21T11:36:37.857Z,22.38
2018-10-21T11:40:02.663Z,23.38
2018-10-21T11:43:27.401Z,24.22
2018-10-21T11:46:52.337Z,23.89
2018-10-21T11:50:17.079Z,25.60
2018-10-21T11:53:41.780Z,26.26
2018-10-21T11:57:07.385Z,27.34
2018-10-21T12:00:32.191Z,24.67
2018-10-21T12:03:56.923Z,23.69
2018-10-21T12:07:21.648Z,22.63
2018-10-21T12:10:46.376Z,21.57
2018-10-21T12:14:11.584Z,22.18
2018-10-21T12:17:36.334Z,20.23
2018-10-21T12:21:01.095Z,21.15
2018-10-21T12:24:25.810Z,19.75
2018-10-21T12:27:50.591Z,19.04
2018-10-21T12:31:15.395Z,20.34
2018-10-21T12:34:40.163Z,20.38
2018-10-21T12:38:05.009Z,19.93
2018-10-21T12:41:30.621Z,19.25
2018-10-21T12:44:55.389Z,18.07
2018-10-21T12:48:20.119Z,18.38
2018-10-21T12:51:45.004Z,18.40
2018-10-21T12:55:10.694Z,17.81
2018-10-21T12:58:35.409Z,18.54
2018-10-21T13:02:00.110Z,17.73
2018-10-21T13:05:24.762Z,16.64
2018-10-21T13:08:49.545Z,17.45
2018-10-21T13:12:14.312Z,18.22
2018-10-21T13:15:39.127Z,19.08
2018-10-21T13:19:04.721Z,23.03
2018-10-21T13:22:29.353Z,20.25
2018-10-21T13:25:54.109Z,20.15
2018-10-21T13:29:18.816Z,17.37
2018-10-21T13:32:43.523Z,17.53
2018-10-21T13:36:08.388Z,19.49
2018-10-21T13:39:33.110Z,18.35
2018-10-21T13:42:57.869Z,17.10
2018-10-21T13:46:22.741Z,17.76
2018-10-21T13:49:47.421Z,18.77
2018-10-21T13:53:12.300Z,18.39
2018-10-21T13:56:36.947Z,17.95
2018-10-21T14:00:01.663Z,17.08
2018-10-21T14:03:26.372Z,16.92
2018-10-21T14:06:51.130Z,18.48
2018-10-21T14:10:15.934Z,17.23
2018-10-21T14:13:40.686Z,17.27
2018-10-21T14:17:05.488Z,21.22
2018-10-21T14:20:30.272Z,20.39
2018-10-21T14:23:55.031Z,18.24
2018-10-21T14:27:19.739Z,18.62
2018-10-21T14:30:44.497Z,17.87
2018-10-21T14:34:09.304Z,19.41
2018-10-21T14:37:34.057Z,22.41
2018-10-21T14:40:58.748Z,21.84
2018-10-21T14:44:23.428Z,21.47
2018-10-21T14:47:48.129Z,20.54
2018-10-21T14:51:12.874Z,21.35
2018-10-21T14:54:37.533Z,22.37
2018-10-21T14:58:02.246Z,20.98
2018-10-21T15:01:27.052Z,21.57
2018-10-21T15:04:51.807Z,22.18
2018-10-21T15:08:16.634Z,22.46
2018-10-21T15:11:41.627Z,22.95
2018-10-21T15:15:07.419Z,22.08
2018-10-21T15:18:32.145Z,21.34
2018-10-21T15:21:56.933Z,21.28
2018-10-21T15:25:21.628Z,21.03
2018-10-21T15:28:46.368Z,21.01
2018-10-21T15:32:11.140Z,23.18
2018-10-21T15:35:35.859Z,23.26
2018-10-21T15:39:00.585Z,24.46
2018-10-21T15:42:25.453Z,25.13
2018-10-21T15:45:50.226Z,26.08
2018-10-21T15:49:14.912Z,29.12
2018-10-21T15:52:39.622Z,29.49
2018-10-21T15:56:04.528Z,30.46
2018-10-21T15:59:29.257Z,31.62
2018-10-21T16:02:53.992Z,33.25
2018-10-21T16:06:18.736Z,33.23
2018-10-21T16:09:43.382Z,35.67
2018-10-21T16:13:09.873Z,37.08
2018-10-21T16:16:34.656Z,37.34
2018-10-21T16:19:59.425Z,37.66
2018-10-21T16:23:24.117Z,40.63
2018-10-21T16:26:48.887Z,40.53
2018-10-21T16:30:14.905Z,40.98
2018-10-21T16:33:39.699Z,41.15
2018-10-21T16:37:04.428Z,43.78
2018-10-21T16:40:29.169Z,42.92
2018-10-21T16:43:53.945Z,44.19
2018-10-21T16:47:18.684Z,43.61
2018-10-21T16:50:43.426Z,45.03
2018-10-21T16:54:08.298Z,46.78
2018-10-21T16:57:33.042Z,47.42
2018-10-21T17:00:57.953Z,47.02
2018-10-21T17:04:22.530Z,47.38
2018-10-21T17:07:47.322Z,48.25
2018-10-21T17:11:12.138Z,48.47
2018-10-21T17:14:36.764Z,49.02
2018-10-21T17:18:01.521Z,49.42
2018-10-21T17:21:26.231Z,50.29
2018-10-21T17:24:51.278Z,49.83
2018-10-21T17:28:16.093Z,51.21
2018-10-21T17:31:40.783Z,50.31
2018-10-21T17:35:06.718Z,51.31
2018-10-21T17:38:31.425Z,51.49
2018-10-21T17:41:56.240Z,52.11
2018-10-21T17:45:20.999Z,52.34
2018-10-21T17:48:45.768Z,51.63
2018-10-21T17:52:10.677Z,52.92
2018-10-21T17:55:35.339Z,52.79
2018-10-21T17:59:00.219Z,52.82
2018-10-21T18:02:24.983Z,53.56
2018-10-21T18:05:49.729Z,54.22
2018-10-21T18:09:14.860Z,53.60
2018-10-21T18:12:39.603Z,54.26
2018-10-21T18:16:04.916Z,54.56
2018-10-21T18:19:29.633Z,56.17
2018-10-21T18:22:54.388Z,55.19
2018-10-21T18:26:19.100Z,55.42
2018-10-21T18:29:43.848Z,56.65
2018-10-21T18:33:08.700Z,57.00
2018-10-21T18:36:33.301Z,55.94
2018-10-21T18:39:58.125Z,56.39
2018-10-21T18:43:22.869Z,57.61
2018-10-21T18:46:47.631Z,58.30
2018-10-21T18:50:14.198Z,57.36
2018-10-21T18:53:38.969Z,57.27
2018-10-21T18:57:03.716Z,57.13
2018-10-21T19:00:28.447Z,58.88
2018-10-21T19:03:53.175Z,58.13
2018-10-21T19:07:17.944Z,58.16
2018-10-21T19:10:42.752Z,58.52
2018-10-21T19:14:07.886Z,58.56
2018-10-21T19:17:32.571Z,57.96
2018-10-21T19:20:57.338Z,58.59
2018-10-21T19:24:22.079Z,58.60
2018-10-21T19:27:47.285Z,60.51
2018-10-21T19:31:12.058Z,58.61
2018-10-21T19:34:36.826Z,59.23
2018-10-21T19:38:01.563Z,59.62
2018-10-21T19:41:26.269Z,60.58
2018-10-21T19:44:51.142Z,60.52
2018-10-21T19:48:15.993Z,61.09
2018-10-21T19:51:41.863Z,60.99
2018-10-21T19:55:07.329Z,61.11
2018-10-21T19:58:32.435Z,60.08
2018-10-21T20:01:57.291Z,60.22
2018-10-21T20:05:22.458Z,62.45
2018-10-21T20:08:47.367Z,62.60
2018-10-21T20:12:12.208Z,62.92
2018-10-21T20:15:37.043Z,62.60
2018-10-21T20:19:01.839Z,62.54
2018-10-21T20:22:26.680Z,62.66
2018-10-21T20:25:51.680Z,62.89
2018-10-21T20:29:16.572Z,64.51
2018-10-21T20:32:41.782Z,64.16
2018-10-21T20:36:06.654Z,63.39
2018-10-21T20:39:32.037Z,63.78
2018-10-21T20:42:56.910Z,64.20
2018-10-21T20:46:21.767Z,63.82
2018-10-21T20:49:47.012Z,64.20
2018-10-21T20:53:11.833Z,64.17
2018-10-21T20:56:36.764Z,63.83
2018-10-21T21:00:01.755Z,64.11
2018-10-21T21:03:26.772Z,64.71
2018-10-21T21:06:51.734Z,64.42
2018-10-21T21:10:16.661Z,65.64
2018-10-21T21:13:41.976Z,65.08
2018-10-21T21:17:06.924Z,65.29
2018-10-21T21:20:31.906Z,65.48
2018-10-21T21:23:56.823Z,65.83
2018-10-21T21:27:22.115Z,66.13
2018-10-21T21:30:47.881Z,65.61
2018-10-21T21:34:12.803Z,65.69
2018-10-21T21:37:37.902Z,65.00
2018-10-21T21:41:02.903Z,64.91
2018-10-21T21:44:27.741Z,65.28
2018-10-21T21:47:52.581Z,64.79
2018-10-21T21:51:17.478Z,64.15
2018-10-21T21:54:42.248Z,64.63
2018-10-21T21:58:07.301Z,65.61
2018-10-21T22:01:32.088Z,64.25
2018-10-21T22:04:57.017Z,65.31
2018-10-21T22:08:21.766Z,64.20
2018-10-21T22:11:46.535Z,62.88
2018-10-21T22:15:11.326Z,63.09
2018-10-21T22:18:36.048Z,62.59
2018-10-21T22:22:00.863Z,63.65
2018-10-21T22:25:25.600Z,63.44
2018-10-21T22:28:50.344Z,63.77
2018-10-21T22:32:15.100Z,63.99
2018-10-21T22:35:39.838Z,64.66
2018-10-21T22:39:05.884Z,64.90
2018-10-21T22:42:30.761Z,65.36
2018-10-21T22:45:55.475Z,65.17
2018-10-21T22:49:20.182Z,64.56
2018-10-21T22:52:44.897Z,64.00
2018-10-21T22:56:09.706Z,63.98
2018-10-21T22:59:34.460Z,63.08
2018-10-21T23:02:59.214Z,63.62
2018-10-21T23:06:23.972Z,62.84
2018-10-21T23:09:48.725Z,62.43
2018-10-21T23:13:13.461Z,62.52
2018-10-21T23:16:38.231Z,63.37
2018-10-21T23:20:02.985Z,63.30
2018-10-21T23:23:27.788Z,62.71
2018-10-21T23:26:52.619Z,62.78
2018-10-21T23:30:17.467Z,62.76
2018-10-21T23:33:42.116Z,63.44
2018-10-21T23:37:07.077Z,63.35
2018-10-21T23:40:31.815Z,63.01
2018-10-21T23:43:56.541Z,63.71
2018-10-21T23:47:21.307Z,63.62
2018-10-21T23:50:46.050Z,62.87
2018-10-21T23:54:10.978Z,61.27
2018-10-21T23:57:35.671Z,59.68
